Chadron Municipal Airport
KCDR : now visible

Airfield :











YOU CAN JOIN US ON...

 
LOGIN :

Register | Disclaimer

   EN    FR    IT 

 









Legend :    VFR   Marginal VFR   IFR   Intensive IFR   Very Intensive IFR
Visi :
Ceiling :
>= 8 km
>= 3000ft
5 to 8 km
1000 to 3000 ft
1500m to 5 km
500 to 1000 ft
800 to 1500m
200 to 500 ft
< 800m
< 200 ft
Symbols :   Thunderstorms  Fog  Heavy snow  Heavy precipitations  Wind > 20 kt






- Airport Elevation : 3297 ft


KCDR - Chadron Municipal

CURRENT METAR :
  • 282353Z AUTO 31012KT 10SM CLR 17/M07 A3020 RMK AO2 SLP232 T01671072 10189 20161 56008

EXPIRED METARs :
  • 282253Z AUTO 32015G25KT 10SM CLR 18/M07 A3021 RMK AO2 PK WND 31027/2206 SLP233 T01831072
  • 282153Z AUTO 30017G29KT 10SM CLR 18/M07 A3022 RMK AO2 PK WND 30031/2117 SLP235 T01831067

TAF KCDR
Valid from the 29 at 00:00 until the 30 at 00:00 UTC


282320Z 2900/2924 32016G24KT P6SM FEW250
FM290100 VRB05KT P6SM SKC
FM291700 33015G25KT P6SM SKC
KZDV FIR / North America



MET'MAP, your aeronautical weather chart ! - Copyright ORBIFLY December 2007 - Disclaimer

ORBIFLY MET'MAP TEAM :

Programming & Development : Alexandra Zaïnal
Concept & original design : Baudouin d'Aumeries
Assistance for programming : Marc-Olivier Méhu
Technical & hardware support : Manuel Goepfert

Contact : metmap@orbifly.com




SOURCES & CREDITS :

   NOAA       Earth
Advisory